createdAt,value
2023-02-09T00:01:05.724Z,-8.25
2023-02-09T00:03:32.847Z,-8.30
2023-02-09T00:06:01.547Z,-8.36
2023-02-09T00:08:29.986Z,-8.41
2023-02-09T00:10:58.055Z,-8.46
2023-02-09T00:13:25.210Z,-8.48
2023-02-09T00:15:56.547Z,-8.52
2023-02-09T00:18:25.956Z,-8.53
2023-02-09T00:21:00.211Z,-8.50
2023-02-09T00:23:28.574Z,-8.45
2023-02-09T00:26:01.851Z,-8.41
2023-02-09T00:28:29.071Z,-8.37
2023-02-09T00:30:56.000Z,-8.36
2023-02-09T00:33:22.892Z,-8.34
2023-02-09T00:35:49.718Z,-8.36
2023-02-09T00:38:16.595Z,-8.46
2023-02-09T00:40:44.044Z,-8.53
2023-02-09T00:43:11.273Z,-8.58
2023-02-09T00:45:38.440Z,-8.62
2023-02-09T00:48:05.930Z,-8.64
2023-02-09T00:50:32.901Z,-8.65
2023-02-09T00:52:59.717Z,-8.63
2023-02-09T00:55:26.834Z,-8.56
2023-02-09T00:57:54.064Z,-8.50
2023-02-09T01:00:21.227Z,-8.46
2023-02-09T01:02:49.092Z,-8.45
2023-02-09T01:05:16.270Z,-8.47
2023-02-09T01:07:45.052Z,-8.52
2023-02-09T01:10:12.046Z,-8.53
2023-02-09T01:12:40.322Z,-8.53
2023-02-09T01:15:07.825Z,-8.54
2023-02-09T01:17:46.587Z,-8.56
2023-02-09T01:20:13.695Z,-8.59
2023-02-09T01:22:42.072Z,-8.63
2023-02-09T01:25:09.303Z,-8.65
2023-02-09T01:27:36.104Z,-8.64
2023-02-09T01:30:03.560Z,-8.65
2023-02-09T01:32:32.240Z,-8.67
2023-02-09T01:34:59.552Z,-8.69
2023-02-09T01:37:26.431Z,-8.71
2023-02-09T01:39:53.320Z,-8.77
2023-02-09T01:42:20.273Z,-8.83
2023-02-09T01:45:32.268Z,-8.84
2023-02-09T01:48:03.213Z,-8.85
2023-02-09T01:50:33.128Z,-8.85
2023-02-09T01:53:00.217Z,-8.83
2023-02-09T01:55:28.515Z,-8.81
2023-02-09T01:57:58.350Z,-8.82
2023-02-09T02:00:25.258Z,-8.90
2023-02-09T02:02:55.205Z,-8.94
2023-02-09T02:05:24.220Z,-8.98
2023-02-09T02:07:53.681Z,-8.98
2023-02-09T02:10:20.795Z,-8.98
2023-02-09T02:12:48.121Z,-9.01
2023-02-09T02:15:15.232Z,-9.04
2023-02-09T02:18:10.226Z,-9.04
2023-02-09T02:20:59.404Z,-9.05
2023-02-09T02:24:18.105Z,-9.10
2023-02-09T02:26:50.780Z,-9.14
2023-02-09T02:29:46.623Z,-9.14
2023-02-09T02:32:23.734Z,-9.14
2023-02-09T02:34:57.365Z,-9.13
2023-02-09T02:37:42.266Z,-9.17
2023-02-09T02:40:37.404Z,-9.16
2023-02-09T02:43:09.190Z,-9.10
2023-02-09T02:45:35.962Z,-9.05
2023-02-09T02:48:21.445Z,-9.01
2023-02-09T02:51:01.139Z,-8.99
2023-02-09T02:53:29.423Z,-8.99
2023-02-09T02:55:59.562Z,-9.02
2023-02-09T02:58:26.532Z,-9.05
2023-02-09T03:00:55.026Z,-9.06
2023-02-09T03:03:24.512Z,-9.03
2023-02-09T03:05:51.612Z,-9.02
2023-02-09T03:08:18.424Z,-9.04
2023-02-09T03:10:45.632Z,-9.07
2023-02-09T03:13:19.960Z,-9.07
2023-02-09T03:16:05.350Z,-9.04
2023-02-09T03:18:37.669Z,-9.07
2023-02-09T03:21:31.483Z,-9.09
2023-02-09T03:24:11.313Z,-9.11
2023-02-09T03:26:45.986Z,-9.10
2023-02-09T03:29:13.094Z,-9.11
2023-02-09T03:31:40.023Z,-9.11
2023-02-09T03:34:06.819Z,-9.09
2023-02-09T03:36:36.830Z,-9.03
2023-02-09T03:39:03.844Z,-8.96
2023-02-09T03:41:30.768Z,-8.91
2023-02-09T03:44:15.990Z,-8.92
2023-02-09T03:46:43.055Z,-8.94
2023-02-09T03:49:10.424Z,-8.92
2023-02-09T03:51:37.299Z,-8.90
2023-02-09T03:54:04.098Z,-8.86
2023-02-09T03:56:30.930Z,-8.83
2023-02-09T03:58:57.787Z,-8.82
2023-02-09T04:01:24.815Z,-8.80
2023-02-09T04:03:51.751Z,-8.77
2023-02-09T04:06:18.548Z,-8.74
2023-02-09T04:08:46.635Z,-8.68
2023-02-09T04:11:13.477Z,-8.62
2023-02-09T04:13:41.505Z,-8.57
2023-02-09T04:16:08.582Z,-8.51
2023-02-09T04:18:35.513Z,-8.45
2023-02-09T04:21:02.361Z,-8.43
2023-02-09T04:23:29.619Z,-8.44
2023-02-09T04:25:56.401Z,-8.45
2023-02-09T04:28:23.657Z,-8.42
2023-02-09T04:30:54.364Z,-8.39
2023-02-09T04:33:22.311Z,-8.35
2023-02-09T04:35:49.417Z,-8.32
2023-02-09T04:38:18.862Z,-8.29
2023-02-09T04:40:47.099Z,-8.26
2023-02-09T04:43:14.306Z,-8.24
2023-02-09T04:45:41.350Z,-8.24
2023-02-09T04:48:11.107Z,-8.25
2023-02-09T04:50:37.921Z,-8.24
2023-02-09T04:53:04.825Z,-8.23
2023-02-09T04:55:31.788Z,-8.25
2023-02-09T04:58:17.671Z,-8.26
2023-02-09T05:00:45.002Z,-8.27
2023-02-09T05:03:12.954Z,-8.30
2023-02-09T05:05:40.747Z,-8.35
2023-02-09T05:08:08.147Z,-8.35
2023-02-09T05:10:35.078Z,-8.31
2023-02-09T05:13:02.148Z,-8.29
2023-02-09T05:15:29.161Z,-8.29
2023-02-09T05:17:56.163Z,-8.31
2023-02-09T05:20:23.061Z,-8.30
2023-02-09T05:22:51.644Z,-8.30
2023-02-09T05:25:18.560Z,-8.33
2023-02-09T05:27:46.321Z,-8.33
2023-02-09T05:30:15.891Z,-8.34
2023-02-09T05:32:43.109Z,-8.32
2023-02-09T05:35:10.202Z,-8.27
2023-02-09T05:37:37.131Z,-8.22
2023-02-09T05:40:04.447Z,-8.18
2023-02-09T05:42:33.068Z,-8.15
2023-02-09T05:45:00.902Z,-8.11
2023-02-09T05:47:27.886Z,-8.06
2023-02-09T05:49:54.898Z,-8.01
2023-02-09T05:52:22.868Z,-7.96
2023-02-09T05:54:49.836Z,-7.91
2023-02-09T05:57:17.217Z,-7.85
2023-02-09T05:59:44.136Z,-7.80
2023-02-09T06:02:11.628Z,-7.74
2023-02-09T06:04:38.580Z,-7.67
2023-02-09T06:07:05.707Z,-7.60
2023-02-09T06:09:32.883Z,-7.52
2023-02-09T06:12:00.675Z,-7.44
2023-02-09T06:14:27.605Z,-7.36
2023-02-09T06:16:55.834Z,-7.26
2023-02-09T06:19:22.977Z,-7.16
2023-02-09T06:21:49.873Z,-7.05
2023-02-09T06:24:16.819Z,-6.94
2023-02-09T06:26:43.600Z,-6.83
2023-02-09T06:29:10.755Z,-6.67
2023-02-09T06:31:37.854Z,-6.52
2023-02-09T06:34:05.251Z,-6.36
2023-02-09T06:36:32.346Z,-6.22
2023-02-09T06:38:59.871Z,-6.10
2023-02-09T06:41:27.643Z,-6.05
2023-02-09T06:43:54.933Z,-5.98
2023-02-09T06:46:21.747Z,-5.93
2023-02-09T06:48:48.841Z,-5.92
2023-02-09T06:51:16.522Z,-5.95
2023-02-09T06:53:43.508Z,-5.97
2023-02-09T06:56:10.973Z,-5.96
2023-02-09T06:58:38.078Z,-5.94
2023-02-09T07:01:09.904Z,-5.96
2023-02-09T07:03:37.186Z,-5.95
2023-02-09T07:06:09.362Z,-5.90
2023-02-09T07:08:36.642Z,-5.83
2023-02-09T07:11:06.000Z,-5.79
2023-02-09T07:13:33.299Z,-5.76
2023-02-09T07:16:02.775Z,-5.70
2023-02-09T07:18:32.825Z,-5.63
2023-02-09T07:21:04.806Z,-5.57
2023-02-09T07:23:31.921Z,-5.54
2023-02-09T07:26:04.077Z,-5.47
2023-02-09T07:28:33.239Z,-5.39
2023-02-09T07:31:05.798Z,-5.31
2023-02-09T07:33:33.088Z,-5.24
2023-02-09T07:36:06.108Z,-5.15
2023-02-09T07:38:34.258Z,-5.04
2023-02-09T07:41:02.302Z,-4.94
2023-02-09T07:43:29.253Z,-4.87
2023-02-09T07:46:00.572Z,-4.84
2023-02-09T07:48:27.710Z,-4.78
2023-02-09T07:50:54.609Z,-4.72
2023-02-09T07:53:21.544Z,-4.67
2023-02-09T07:55:48.565Z,-4.61
2023-02-09T07:58:17.678Z,-4.57
2023-02-09T08:00:53.861Z,-4.54
2023-02-09T08:03:22.076Z,-4.51
2023-02-09T08:05:58.478Z,-4.50
2023-02-09T08:08:26.258Z,-4.48
2023-02-09T08:10:54.334Z,-4.45
2023-02-09T08:13:22.457Z,-4.44
2023-02-09T08:15:52.111Z,-4.45
2023-02-09T08:18:21.461Z,-4.44
2023-02-09T08:20:50.108Z,-4.41
2023-02-09T08:23:23.334Z,-4.37
2023-02-09T08:25:51.003Z,-4.32
2023-02-09T08:28:19.311Z,-4.28
2023-02-09T08:30:47.178Z,-4.23
2023-02-09T08:33:14.689Z,-4.19
2023-02-09T08:35:42.336Z,-4.16
2023-02-09T08:38:09.396Z,-4.12
2023-02-09T08:40:40.756Z,-4.06
2023-02-09T08:43:08.055Z,-4.01
2023-02-09T08:45:36.614Z,-3.95
2023-02-09T08:48:05.920Z,-3.89
2023-02-09T08:50:33.801Z,-3.82
2023-02-09T08:53:02.406Z,-3.76
2023-02-09T08:55:31.483Z,-3.69
2023-02-09T08:57:58.633Z,-3.62
2023-02-09T09:00:26.408Z,-3.56
2023-02-09T09:02:54.553Z,-3.49
2023-02-09T09:05:22.418Z,-3.40
2023-02-09T09:07:51.416Z,-3.32
2023-02-09T09:10:19.438Z,-3.25
2023-02-09T09:12:47.311Z,-3.17
2023-02-09T09:15:14.171Z,-3.10
2023-02-09T09:17:42.721Z,-3.01
2023-02-09T09:20:10.158Z,-2.92
2023-02-09T09:22:39.378Z,-2.80
2023-02-09T09:25:06.632Z,-2.69
2023-02-09T09:27:34.473Z,-2.58
2023-02-09T09:30:02.762Z,-2.46
2023-02-09T09:32:31.763Z,-2.32
2023-02-09T09:34:58.816Z,-2.18
2023-02-09T09:37:25.937Z,-2.05
2023-02-09T09:39:53.215Z,-1.95
2023-02-09T09:42:23.175Z,-1.84
2023-02-09T09:44:50.351Z,-1.72
2023-02-09T09:47:22.392Z,-1.60
2023-02-09T09:49:49.263Z,-1.48
2023-02-09T09:52:19.304Z,-1.35
2023-02-09T09:54:46.158Z,-1.21
2023-02-09T09:57:20.225Z,-1.03
2023-02-09T09:59:47.879Z,-0.83
2023-02-09T10:02:29.592Z,-0.66
2023-02-09T10:05:05.097Z,-0.49
2023-02-09T10:07:32.475Z,-0.33
2023-02-09T10:10:05.620Z,-0.17
2023-02-09T10:12:38.641Z,-0.02
2023-02-09T10:15:35.843Z,0.10
2023-02-09T10:18:11.183Z,0.28
2023-02-09T10:20:56.271Z,0.46
2023-02-09T10:23:47.654Z,0.67
2023-02-09T10:26:23.364Z,0.90
2023-02-09T10:28:56.040Z,1.10
2023-02-09T10:31:35.612Z,1.28
2023-02-09T10:34:30.386Z,1.49
2023-02-09T10:37:19.976Z,1.73
2023-02-09T10:40:00.720Z,1.99
2023-02-09T10:42:30.274Z,2.23
2023-02-09T10:45:04.958Z,2.41
2023-02-09T10:47:32.223Z,2.61
2023-02-09T10:50:00.720Z,2.76
2023-02-09T10:52:35.522Z,2.91
2023-02-09T10:55:30.214Z,3.04
2023-02-09T10:58:09.565Z,3.19
2023-02-09T11:00:58.115Z,3.31
2023-02-09T11:03:25.174Z,3.47
2023-02-09T11:06:00.945Z,3.62
2023-02-09T11:08:42.408Z,3.75
2023-02-09T11:11:21.409Z,3.85
2023-02-09T11:13:48.329Z,3.96
2023-02-09T11:16:33.540Z,4.05
2023-02-09T11:19:13.896Z,4.17
2023-02-09T11:21:50.015Z,4.27
2023-02-09T11:24:26.412Z,4.38
2023-02-09T11:27:04.087Z,4.52
2023-02-09T11:29:40.932Z,4.63
2023-02-09T11:32:20.337Z,4.73
2023-02-09T11:35:15.029Z,4.79
2023-02-09T11:38:05.135Z,4.78
2023-02-09T11:40:39.748Z,4.78
2023-02-09T11:43:09.763Z,4.81
2023-02-09T11:46:03.746Z,4.83
2023-02-09T11:48:32.574Z,4.86
2023-02-09T11:51:13.587Z,4.85
2023-02-09T11:53:56.709Z,4.81
2023-02-09T11:56:24.331Z,4.80
2023-02-09T11:58:57.187Z,4.81
2023-02-09T12:01:43.862Z,4.82
2023-02-09T12:04:16.403Z,4.82
2023-02-09T12:06:44.644Z,4.80
2023-02-09T12:09:18.209Z,4.72
2023-02-09T12:12:15.267Z,4.63
2023-02-09T12:14:53.487Z,4.59
2023-02-09T12:17:29.274Z,4.60
2023-02-09T12:19:59.982Z,4.65
2023-02-09T12:22:33.919Z,4.73
2023-02-09T12:25:36.045Z,4.80
2023-02-09T12:28:10.528Z,4.88
2023-02-09T12:30:40.795Z,4.95
2023-02-09T12:33:23.054Z,4.99
2023-02-09T12:36:27.830Z,5.02
2023-02-09T12:39:05.515Z,5.06
2023-02-09T12:41:33.469Z,5.05
2023-02-09T12:44:09.820Z,5.02
2023-02-09T12:46:55.073Z,5.00
2023-02-09T12:49:33.633Z,4.99
2023-02-09T12:52:00.449Z,4.97
2023-02-09T12:54:36.254Z,4.95
2023-02-09T12:57:15.416Z,4.91
2023-02-09T13:00:03.696Z,4.87
2023-02-09T13:02:51.724Z,4.86
2023-02-09T13:05:23.082Z,4.87
2023-02-09T13:08:12.665Z,4.89
2023-02-09T13:11:10.724Z,4.94
2023-02-09T13:13:41.317Z,4.98
2023-02-09T13:16:29.214Z,5.01
2023-02-09T13:19:06.570Z,5.05
2023-02-09T13:21:39.079Z,5.05
2023-02-09T13:24:10.096Z,5.01
2023-02-09T13:26:48.335Z,4.96
2023-02-09T13:29:22.010Z,4.92
2023-02-09T13:32:14.299Z,4.89
2023-02-09T13:34:41.812Z,4.84
2023-02-09T13:37:47.156Z,4.82
2023-02-09T13:40:23.067Z,4.82
2023-02-09T13:43:03.023Z,4.81
2023-02-09T13:45:30.851Z,4.80
2023-02-09T13:48:03.703Z,4.76
2023-02-09T13:50:31.407Z,4.73
2023-02-09T13:53:09.158Z,4.68
2023-02-09T13:55:40.252Z,4.63
2023-02-09T13:58:07.843Z,4.59
2023-02-09T14:00:40.852Z,4.55
2023-02-09T14:03:16.309Z,4.53
2023-02-09T14:05:46.559Z,4.48
2023-02-09T14:08:15.631Z,4.43
2023-02-09T14:10:45.793Z,4.37
2023-02-09T14:13:19.910Z,4.31
2023-02-09T14:16:06.702Z,4.26
2023-02-09T14:19:41.810Z,4.15
2023-02-09T14:22:43.833Z,3.97
2023-02-09T14:25:14.199Z,3.85
2023-02-09T14:27:41.171Z,3.75
2023-02-09T14:30:24.974Z,3.65
2023-02-09T14:32:56.214Z,3.55
2023-02-09T14:35:30.821Z,3.48
2023-02-09T14:38:01.234Z,3.41
2023-02-09T14:40:29.506Z,3.33
2023-02-09T14:43:02.582Z,3.24
2023-02-09T14:45:35.539Z,3.12
2023-02-09T14:48:18.169Z,2.98
2023-02-09T14:50:46.189Z,2.83
2023-02-09T14:53:14.317Z,2.69
2023-02-09T14:55:41.722Z,2.53
2023-02-09T14:58:22.709Z,2.37
2023-02-09T15:00:50.405Z,2.22
2023-02-09T15:03:17.559Z,2.08
2023-02-09T15:05:46.693Z,1.96
2023-02-09T15:08:22.231Z,1.84
2023-02-09T15:10:52.794Z,1.70
2023-02-09T15:13:20.867Z,1.58
2023-02-09T15:15:53.035Z,1.44
2023-02-09T15:18:25.086Z,1.32
2023-02-09T15:20:52.188Z,1.22
2023-02-09T15:23:19.770Z,1.11
2023-02-09T15:25:47.534Z,1.02
2023-02-09T15:28:31.752Z,0.92
2023-02-09T15:30:58.779Z,0.82
2023-02-09T15:33:26.277Z,0.73
2023-02-09T15:35:53.654Z,0.65
2023-02-09T15:38:20.502Z,0.56
2023-02-09T15:41:08.120Z,0.46
2023-02-09T15:43:53.710Z,0.37
2023-02-09T15:46:40.858Z,0.30
2023-02-09T15:49:07.851Z,0.24
2023-02-09T15:51:36.615Z,0.17
2023-02-09T15:54:11.580Z,0.10
2023-02-09T15:56:38.381Z,0.04
2023-02-09T15:59:05.498Z,-0.02
2023-02-09T16:01:33.933Z,-0.08
2023-02-09T16:04:13.500Z,-0.15
2023-02-09T16:06:51.971Z,-0.22
2023-02-09T16:09:27.051Z,-0.29
2023-02-09T16:11:55.947Z,-0.35
2023-02-09T16:14:24.814Z,-0.40
2023-02-09T16:16:52.140Z,-0.44
2023-02-09T16:19:20.652Z,-0.50
2023-02-09T16:21:56.778Z,-0.53
2023-02-09T16:24:33.492Z,-0.58
2023-02-09T16:27:01.371Z,-0.63
2023-02-09T16:29:28.307Z,-0.68
2023-02-09T16:31:55.287Z,-0.72
2023-02-09T16:34:25.007Z,-0.75
2023-02-09T16:36:52.096Z,-0.80
2023-02-09T16:39:20.505Z,-0.86
2023-02-09T16:41:47.641Z,-0.91
2023-02-09T16:44:23.050Z,-0.95
2023-02-09T16:46:54.723Z,-1.00
2023-02-09T16:49:36.258Z,-1.04
2023-02-09T16:52:18.102Z,-1.07
2023-02-09T16:54:47.081Z,-1.12
2023-02-09T16:57:15.900Z,-1.17
2023-02-09T16:59:43.222Z,-1.24
2023-02-09T17:02:34.835Z,-1.31
2023-02-09T17:05:07.615Z,-1.36
2023-02-09T17:07:45.356Z,-1.40
2023-02-09T17:10:23.336Z,-1.45
2023-02-09T17:12:52.608Z,-1.51
2023-02-09T17:15:31.782Z,-1.55
2023-02-09T17:18:03.541Z,-1.60
2023-02-09T17:20:35.733Z,-1.64
2023-02-09T17:23:03.405Z,-1.69
2023-02-09T17:25:31.122Z,-1.76
2023-02-09T17:27:58.267Z,-1.83
2023-02-09T17:30:25.204Z,-1.88
2023-02-09T17:32:59.599Z,-1.93
2023-02-09T17:36:23.902Z,-1.99
2023-02-09T17:38:42.613Z,-2.05
2023-02-09T17:41:32.993Z,-2.11
2023-02-09T17:44:19.598Z,-2.16
2023-02-09T17:46:51.008Z,-2.19
2023-02-09T17:49:17.986Z,-2.22
2023-02-09T17:51:45.628Z,-2.28
2023-02-09T17:54:13.849Z,-2.34
2023-02-09T17:56:41.933Z,-2.39
2023-02-09T17:59:09.206Z,-2.47
2023-02-09T18:01:43.807Z,-2.56
2023-02-09T18:04:21.963Z,-2.61
2023-02-09T18:06:49.020Z,-2.69
2023-02-09T18:09:16.083Z,-2.77
2023-02-09T18:11:56.063Z,-2.83
2023-02-09T18:14:30.347Z,-2.87
2023-02-09T18:17:01.265Z,-2.88
2023-02-09T18:19:29.123Z,-2.89
2023-02-09T18:22:01.236Z,-2.92
2023-02-09T18:24:31.725Z,-2.94
2023-02-09T18:27:01.430Z,-2.98
2023-02-09T18:29:29.710Z,-3.03
2023-02-09T18:32:00.345Z,-3.09
2023-02-09T18:34:30.496Z,-3.13
2023-02-09T18:36:57.517Z,-3.18
2023-02-09T18:39:24.809Z,-3.27
2023-02-09T18:41:55.455Z,-3.35
2023-02-09T18:44:27.957Z,-3.40
2023-02-09T18:46:56.698Z,-3.48
2023-02-09T18:49:23.570Z,-3.49
2023-02-09T18:51:51.557Z,-3.48
2023-02-09T18:54:18.790Z,-3.48
2023-02-09T18:56:45.612Z,-3.49
2023-02-09T18:59:13.050Z,-3.49
2023-02-09T19:01:40.389Z,-3.49
2023-02-09T19:04:07.648Z,-3.49
2023-02-09T19:06:35.005Z,-3.51
2023-02-09T19:09:03.001Z,-3.54
2023-02-09T19:11:30.282Z,-3.60
2023-02-09T19:14:15.810Z,-3.65
2023-02-09T19:16:42.770Z,-3.66
2023-02-09T19:19:12.808Z,-3.69
2023-02-09T19:21:40.076Z,-3.70
2023-02-09T19:24:07.158Z,-3.72
2023-02-09T19:26:34.021Z,-3.75
2023-02-09T19:29:01.203Z,-3.80
2023-02-09T19:31:30.310Z,-3.82
2023-02-09T19:33:57.229Z,-3.83
2023-02-09T19:36:27.269Z,-3.87
2023-02-09T19:38:55.238Z,-3.90
2023-02-09T19:41:23.165Z,-3.92
2023-02-09T19:43:53.929Z,-3.94
2023-02-09T19:46:21.279Z,-3.99
2023-02-09T19:48:49.032Z,-4.03
2023-02-09T19:51:15.859Z,-4.06
2023-02-09T19:53:46.612Z,-4.06
2023-02-09T19:56:16.363Z,-4.07
2023-02-09T19:58:43.879Z,-4.07
2023-02-09T20:01:11.572Z,-4.09
2023-02-09T20:03:39.049Z,-4.11
2023-02-09T20:06:08.915Z,-4.12
2023-02-09T20:08:37.632Z,-4.14
2023-02-09T20:11:14.891Z,-4.16
2023-02-09T20:13:42.272Z,-4.20
2023-02-09T20:16:12.708Z,-4.22
2023-02-09T20:18:40.157Z,-4.25
2023-02-09T20:21:10.244Z,-4.29
2023-02-09T20:23:38.734Z,-4.31
2023-02-09T20:26:18.006Z,-4.35
2023-02-09T20:28:45.154Z,-4.39
2023-02-09T20:31:15.027Z,-4.41
2023-02-09T20:33:43.179Z,-4.49
2023-02-09T20:36:13.137Z,-4.57
2023-02-09T20:38:40.091Z,-4.64
2023-02-09T20:41:11.433Z,-4.68
2023-02-09T20:43:57.710Z,-4.70
2023-02-09T20:46:45.175Z,-4.73
2023-02-09T20:49:13.299Z,-4.73
2023-02-09T20:51:40.341Z,-4.75
2023-02-09T20:54:07.497Z,-4.78
2023-02-09T20:56:38.008Z,-4.83
2023-02-09T20:59:06.128Z,-4.88
2023-02-09T21:01:38.731Z,-4.92
2023-02-09T21:04:06.921Z,-4.97
2023-02-09T21:06:36.415Z,-4.98
2023-02-09T21:09:05.070Z,-5.00
2023-02-09T21:11:34.277Z,-5.04
2023-02-09T21:14:01.595Z,-5.07
2023-02-09T21:16:30.217Z,-5.13
2023-02-09T21:18:58.444Z,-5.20
2023-02-09T21:21:26.457Z,-5.22
2023-02-09T21:23:53.388Z,-5.22
2023-02-09T21:26:23.954Z,-5.22
2023-02-09T21:28:56.803Z,-5.21
2023-02-09T21:31:26.182Z,-5.22
2023-02-09T21:33:55.232Z,-5.24
2023-02-09T21:36:22.580Z,-5.23
2023-02-09T21:38:49.961Z,-5.23
2023-02-09T21:41:39.565Z,-5.26
2023-02-09T21:44:11.966Z,-5.28
2023-02-09T21:46:38.874Z,-5.32
2023-02-09T21:49:06.894Z,-5.32
2023-02-09T21:51:35.966Z,-5.33
2023-02-09T21:54:03.243Z,-5.33
2023-02-09T21:56:30.085Z,-5.34
2023-02-09T21:58:56.929Z,-5.36
2023-02-09T22:01:24.144Z,-5.38
2023-02-09T22:03:56.501Z,-5.39
2023-02-09T22:06:24.674Z,-5.43
2023-02-09T22:08:51.901Z,-5.45
2023-02-09T22:11:19.217Z,-5.47
2023-02-09T22:13:46.476Z,-5.47
2023-02-09T22:16:17.459Z,-5.47
2023-02-09T22:18:44.199Z,-5.48
2023-02-09T22:21:10.943Z,-5.47
2023-02-09T22:23:37.862Z,-5.47
2023-02-09T22:26:05.178Z,-5.48
2023-02-09T22:28:36.150Z,-5.49
2023-02-09T22:31:29.006Z,-5.51
2023-02-09T22:33:57.931Z,-5.53
2023-02-09T22:36:25.177Z,-5.54
2023-02-09T22:38:51.854Z,-5.55
2023-02-09T22:41:20.767Z,-5.56
2023-02-09T22:44:01.709Z,-5.57
2023-02-09T22:46:35.628Z,-5.58
2023-02-09T22:49:07.276Z,-5.58
2023-02-09T22:51:34.789Z,-5.58
2023-02-09T22:54:01.894Z,-5.59
2023-02-09T22:56:29.295Z,-5.63
2023-02-09T22:58:57.270Z,-5.66
2023-02-09T23:01:24.093Z,-5.68
2023-02-09T23:03:50.931Z,-5.71
2023-02-09T23:06:19.477Z,-5.72
2023-02-09T23:08:46.588Z,-5.71
2023-02-09T23:11:14.980Z,-5.71
2023-02-09T23:13:42.353Z,-5.71
2023-02-09T23:16:17.302Z,-5.68
2023-02-09T23:18:49.116Z,-5.63
2023-02-09T23:21:15.875Z,-5.59
2023-02-09T23:23:42.704Z,-5.56
2023-02-09T23:26:09.600Z,-5.53
2023-02-09T23:28:36.554Z,-5.52
2023-02-09T23:31:07.676Z,-5.51
2023-02-09T23:33:35.244Z,-5.54
2023-02-09T23:36:04.459Z,-5.54
2023-02-09T23:38:31.188Z,-5.57
2023-02-09T23:40:57.938Z,-5.60
2023-02-09T23:43:25.518Z,-5.60
2023-02-09T23:45:52.904Z,-5.58
2023-02-09T23:48:20.557Z,-5.54
2023-02-09T23:50:47.735Z,-5.52
2023-02-09T23:53:14.524Z,-5.54
2023-02-09T23:55:41.966Z,-5.54
2023-02-09T23:58:09.398Z,-5.55
